Time;durP1;ratioP1;P1;durP2;ratioP2;P2;SDS_P1;SDS_P2;PMS_P1;PMS_P2;Temp;Humidity;BMP_temperature;BMP_pressure;BME280_temperature;BME280_humidity;BME280_pressure;Samples;Min_cycle;Max_cycle;Signal;HPM_P1;HPM_P2
2021/04/29 00:01:43;;;;;;;35.75;23.45;;;12.70;75.50;;;;;;5034030;28;20034;-62
2021/04/29 00:04:10;;;;;;;37.47;22.15;;;12.70;75.60;;;;;;5041367;28;20385;-62
2021/04/29 00:06:36;;;;;;;35.40;23.05;;;12.70;75.60;;;;;;5042193;28;20389;-62
2021/04/29 00:09:03;;;;;;;31.38;21.83;;;12.60;75.70;;;;;;5032048;28;20100;-61
2021/04/29 00:11:29;;;;;;;33.17;22.75;;;12.70;75.60;;;;;;5043645;28;20076;-61
2021/04/29 00:13:54;;;;;;;36.13;22.77;;;12.70;75.60;;;;;;5063672;28;20430;-61
2021/04/29 00:16:20;;;;;;;32.28;21.50;;;12.70;75.50;;;;;;5037424;28;20027;-63
2021/04/29 00:18:46;;;;;;;30.58;22.15;;;12.60;75.70;;;;;;5048294;28;20040;-61
2021/04/29 00:21:11;;;;;;;33.80;22.38;;;12.60;76.00;;;;;;5031847;28;20040;-61
2021/04/29 00:23:56;;;;;;;35.30;22.67;;;12.60;76.00;;;;;;5031589;28;20389;-61
2021/04/29 00:26:21;;;;;;;34.95;22.27;;;12.60;76.10;;;;;;5031727;28;20052;-62
2021/04/29 00:28:47;;;;;;;32.22;22.27;;;12.50;75.90;;;;;;5039165;28;20458;-61
2021/04/29 00:31:12;;;;;;;33.72;23.33;;;12.60;75.90;;;;;;5039129;28;20025;-60
2021/04/29 00:33:38;;;;;;;35.30;22.63;;;12.60;76.00;;;;;;5042524;28;20034;-62
2021/04/29 00:36:04;;;;;;;37.45;22.70;;;12.60;75.80;;;;;;5034425;28;20053;-62
2021/04/29 00:38:31;;;;;;;34.85;23.23;;;12.60;75.80;;;;;;5031904;28;20029;-62
2021/04/29 00:40:57;;;;;;;33.90;22.73;;;12.60;75.90;;;;;;5030829;28;20052;-61
2021/04/29 00:43:23;;;;;;;31.85;21.70;;;12.60;75.80;;;;;;5048176;28;20116;-61
2021/04/29 00:45:49;;;;;;;34.47;22.48;;;12.60;75.80;;;;;;5048968;28;20381;-62
2021/04/29 00:48:16;;;;;;;41.05;24.45;;;12.60;75.60;;;;;;5049494;28;20032;-61
2021/04/29 00:50:42;;;;;;;32.72;22.80;;;12.60;76.00;;;;;;5050920;28;20033;-61
2021/04/29 00:53:08;;;;;;;34.83;23.25;;;12.60;76.20;;;;;;5046362;28;20029;-61
2021/04/29 00:55:34;;;;;;;36.47;22.90;;;12.60;76.10;;;;;;5050099;28;20052;-61
2021/04/29 00:58:00;;;;;;;38.10;24.17;;;12.60;76.10;;;;;;5041658;28;20034;-60
2021/04/29 01:00:27;;;;;;;34.35;22.58;;;12.50;76.20;;;;;;5031921;28;20030;-62
2021/04/29 01:03:18;;;;;;;35.65;24.17;;;12.50;76.70;;;;;;5039690;28;20041;-61
2021/04/29 01:05:51;;;;;;;40.42;24.30;;;12.50;76.70;;;;;;5032285;28;20021;-62
2021/04/29 01:08:46;;;;;;;37.45;23.83;;;12.40;77.00;;;;;;5030701;28;20036;-61
2021/04/29 01:11:21;;;;;;;36.88;24.50;;;12.40;77.20;;;;;;5039136;28;20036;-62
2021/04/29 01:13:53;;;;;;;38.80;24.58;;;12.40;77.30;;;;;;5050509;28;20037;-61
2021/04/29 01:16:22;;;;;;;42.30;24.77;;;12.40;77.20;;;;;;5051047;28;20025;-61
2021/04/29 01:18:48;;;;;;;39.10;24.17;;;12.40;77.20;;;;;;5047168;28;20021;-61
2021/04/29 01:21:16;;;;;;;42.47;24.70;;;12.40;77.60;;;;;;5048366;28;20075;-62
2021/04/29 01:23:48;;;;;;;40.25;24.65;;;12.40;77.20;;;;;;5043261;28;20036;-61
2021/04/29 01:26:25;;;;;;;41.97;25.58;;;12.40;77.40;;;;;;5053143;28;20032;-61
2021/04/29 01:28:52;;;;;;;39.05;24.48;;;12.40;77.40;;;;;;5036113;28;20025;-62
2021/04/29 01:31:22;;;;;;;41.72;24.95;;;12.40;77.20;;;;;;5035150;28;20410;-62
2021/04/29 01:33:49;;;;;;;40.05;24.48;;;12.30;77.60;;;;;;5042114;28;20374;-61
2021/04/29 01:36:14;;;;;;;42.08;26.08;;;12.30;77.50;;;;;;5052917;28;20029;-61
2021/04/29 01:38:40;;;;;;;43.55;26.60;;;12.30;77.80;;;;;;5036862;28;20041;-60
2021/04/29 01:41:06;;;;;;;42.67;26.63;;;12.30;78.00;;;;;;5041012;28;20031;-61
2021/04/29 01:43:33;;;;;;;41.95;26.33;;;12.30;78.00;;;;;;5054692;28;20029;-61
2021/04/29 01:46:01;;;;;;;45.08;25.20;;;12.30;78.00;;;;;;5046592;28;20036;-62
2021/04/29 01:48:27;;;;;;;43.72;26.02;;;12.30;77.90;;;;;;5034664;28;20087;-62
2021/04/29 01:50:53;;;;;;;44.45;26.50;;;12.30;77.80;;;;;;5034309;28;20037;-62
2021/04/29 01:53:18;;;;;;;43.85;25.85;;;12.30;78.10;;;;;;5034847;28;20052;-62
2021/04/29 01:55:45;;;;;;;42.35;25.90;;;12.20;78.10;;;;;;5036710;28;20104;-62
2021/04/29 01:58:11;;;;;;;44.60;26.73;;;12.20;78.00;;;;;;5051447;28;20446;-62
2021/04/29 02:00:37;;;;;;;42.47;25.88;;;12.30;77.90;;;;;;5041280;28;20041;-62
2021/04/29 02:03:03;;;;;;;43.05;26.67;;;12.30;77.80;;;;;;5043090;28;20030;-61
2021/04/29 02:05:29;;;;;;;44.85;27.70;;;12.30;77.60;;;;;;5054409;28;20025;-61
2021/04/29 02:07:54;;;;;;;44.85;27.58;;;12.30;77.70;;;;;;5052861;28;20040;-61
2021/04/29 02:10:20;;;;;;;45.67;28.08;;;12.20;78.00;;;;;;5054131;28;20032;-62
2021/04/29 02:12:50;;;;;;;47.92;27.63;;;12.20;78.10;;;;;;5058583;28;20176;-61
2021/04/29 02:15:16;;;;;;;47.65;27.90;;;12.20;78.10;;;;;;5057332;28;20142;-61
2021/04/29 02:18:09;;;;;;;45.80;27.67;;;12.20;78.30;;;;;;5045944;28;20475;-63
2021/04/29 02:20:41;;;;;;;45.20;27.80;;;12.20;78.20;;;;;;5043542;28;20037;-62
2021/04/29 02:23:12;;;;;;;46.15;27.40;;;12.20;77.80;;;;;;5043842;28;20049;-62
2021/04/29 02:25:40;;;;;;;44.38;26.23;;;12.20;78.00;;;;;;5050838;28;20032;-62
2021/04/29 02:28:06;;;;;;;43.42;27.35;;;12.20;78.40;;;;;;5050591;28;20028;-61
2021/04/29 02:30:32;;;;;;;47.00;28.08;;;12.10;78.90;;;;;;5051484;28;20115;-61
2021/04/29 02:33:01;;;;;;;46.13;27.92;;;12.10;78.90;;;;;;5046190;28;20029;-61
2021/04/29 02:35:28;;;;;;;46.00;28.00;;;12.00;79.10;;;;;;5047843;28;20075;-61
2021/04/29 02:37:55;;;;;;;46.08;28.33;;;12.00;79.20;;;;;;5041714;28;20100;-61
2021/04/29 02:40:22;;;;;;;48.05;29.13;;;12.00;79.20;;;;;;5036757;28;20386;-62
2021/04/29 02:42:49;;;;;;;46.45;28.27;;;12.10;78.80;;;;;;5050435;28;20119;-61
2021/04/29 02:45:16;;;;;;;46.92;29.92;;;12.10;79.00;;;;;;5052269;28;20079;-62
2021/04/29 02:47:48;;;;;;;45.75;28.88;;;12.00;79.00;;;;;;5041714;28;20034;-66
2021/04/29 02:50:18;;;;;;;44.78;28.73;;;12.00;79.20;;;;;;5032221;28;20021;-62
2021/04/29 02:52:45;;;;;;;47.17;28.63;;;12.10;79.10;;;;;;5047346;28;20461;-62
2021/04/29 02:55:12;;;;;;;47.08;28.23;;;12.20;78.90;;;;;;5036985;28;20044;-62
2021/04/29 02:57:37;;;;;;;48.50;29.10;;;12.30;78.30;;;;;;5032224;28;20029;-61
2021/04/29 03:00:05;;;;;;;44.97;28.80;;;12.40;77.90;;;;;;5046671;28;20436;-62
2021/04/29 03:02:31;;;;;;;46.22;29.17;;;12.50;77.70;;;;;;5048472;28;20033;-61
2021/04/29 03:04:57;;;;;;;46.25;28.63;;;12.50;77.50;;;;;;5048412;28;20049;-61
2021/04/29 03:07:23;;;;;;;49.25;30.15;;;12.60;77.30;;;;;;5043514;28;20065;-61
2021/04/29 03:09:48;;;;;;;48.58;30.10;;;12.70;77.00;;;;;;5036115;28;20025;-62
2021/04/29 03:12:14;;;;;;;54.58;31.63;;;12.80;76.60;;;;;;5030659;28;20099;-61
2021/04/29 03:14:40;;;;;;;46.55;29.98;;;12.80;76.40;;;;;;5041505;28;20079;-62
2021/04/29 03:17:06;;;;;;;48.92;30.75;;;12.80;76.70;;;;;;5048921;28;20025;-62
2021/04/29 03:19:31;;;;;;;42.70;29.60;;;12.70;77.00;;;;;;5048727;28;20469;-61
2021/04/29 03:21:57;;;;;;;49.33;30.50;;;12.70;77.10;;;;;;5033585;28;20060;-61
2021/04/29 03:24:23;;;;;;;48.33;30.05;;;12.70;77.20;;;;;;5051108;28;20036;-60
2021/04/29 03:26:48;;;;;;;52.40;31.42;;;12.70;77.00;;;;;;5046968;28;20115;-62
2021/04/29 03:29:14;;;;;;;52.38;33.45;;;12.80;76.90;;;;;;5032384;28;20031;-61
2021/04/29 03:31:40;;;;;;;48.95;31.48;;;12.80;77.00;;;;;;5032194;28;20025;-62
2021/04/29 03:34:06;;;;;;;54.20;32.25;;;12.70;77.50;;;;;;5051921;28;20024;-60
2021/04/29 03:36:31;;;;;;;49.25;32.45;;;12.60;78.10;;;;;;5043360;28;20032;-61
2021/04/29 03:38:57;;;;;;;50.08;32.03;;;12.50;78.60;;;;;;5050613;28;20028;-61
2021/04/29 03:41:23;;;;;;;50.20;32.03;;;12.50;78.80;;;;;;5041207;28;20060;-60
2021/04/29 03:43:48;;;;;;;51.58;32.40;;;12.50;79.00;;;;;;5029782;28;20577;-61
2021/04/29 03:46:14;;;;;;;53.30;31.55;;;12.50;78.80;;;;;;5039383;28;20516;-61
2021/04/29 03:48:40;;;;;;;48.00;31.52;;;12.60;78.70;;;;;;5047017;28;20377;-61
2021/04/29 03:51:06;;;;;;;55.28;33.20;;;12.60;78.70;;;;;;5031381;28;20037;-62
2021/04/29 03:53:31;;;;;;;53.28;32.65;;;12.70;78.30;;;;;;5030679;28;20045;-61
2021/04/29 03:55:57;;;;;;;50.67;30.67;;;12.70;78.30;;;;;;5032239;28;20025;-60
2021/04/29 03:58:24;;;;;;;52.95;31.98;;;12.70;78.30;;;;;;5049134;28;20032;-62
2021/04/29 04:00:49;;;;;;;54.33;32.55;;;12.70;78.20;;;;;;5045262;28;20030;-61
2021/04/29 04:03:15;;;;;;;51.78;33.38;;;12.70;78.20;;;;;;5037619;28;20041;-61
2021/04/29 04:05:41;;;;;;;53.03;33.03;;;12.70;78.20;;;;;;5038480;28;20075;-61
2021/04/29 04:08:06;;;;;;;52.80;33.47;;;12.70;78.10;;;;;;5033382;28;20462;-61
2021/04/29 04:10:32;;;;;;;52.97;32.17;;;12.80;78.00;;;;;;5030356;28;20104;-61
2021/04/29 04:12:58;;;;;;;50.83;33.67;;;12.80;77.80;;;;;;5029786;28;20486;-61
2021/04/29 04:15:23;;;;;;;54.90;33.90;;;12.90;77.70;;;;;;5039051;28;20467;-61
2021/04/29 04:17:49;;;;;;;50.03;32.17;;;12.80;77.70;;;;;;5029723;28;20390;-61
2021/04/29 04:20:15;;;;;;;52.65;33.58;;;12.90;77.40;;;;;;5030761;28;20033;-61
2021/04/29 04:22:41;;;;;;;51.78;32.33;;;12.80;77.70;;;;;;5049175;28;20044;-61
2021/04/29 04:25:07;;;;;;;51.42;33.63;;;12.90;77.70;;;;;;5044425;28;20500;-62
2021/04/29 04:27:33;;;;;;;55.17;33.08;;;12.90;77.40;;;;;;5032194;28;20052;-62
2021/04/29 04:29:59;;;;;;;54.15;33.25;;;12.90;77.40;;;;;;5029635;28;20030;-62
2021/04/29 04:32:25;;;;;;;54.80;34.10;;;13.00;77.00;;;;;;5031811;28;20056;-61
2021/04/29 04:34:50;;;;;;;52.40;33.15;;;13.10;76.80;;;;;;5038403;28;20456;-61
2021/04/29 04:37:16;;;;;;;49.58;33.72;;;13.10;76.70;;;;;;5047780;28;20048;-62
2021/04/29 04:39:41;;;;;;;52.08;33.25;;;13.10;76.50;;;;;;5038321;28;20029;-62
2021/04/29 04:42:07;;;;;;;59.60;34.67;;;13.10;76.70;;;;;;5029454;28;20033;-62
2021/04/29 04:44:33;;;;;;;51.63;33.30;;;13.20;76.40;;;;;;5030395;28;20537;-62
2021/04/29 04:46:58;;;;;;;54.47;34.65;;;13.20;76.10;;;;;;5031492;28;20128;-61
2021/04/29 04:49:24;;;;;;;51.75;34.03;;;13.20;76.20;;;;;;5049048;28;20417;-61
2021/04/29 04:51:50;;;;;;;54.33;34.05;;;13.00;76.50;;;;;;5044123;28;20406;-62
2021/04/29 04:54:18;;;;;;;53.40;33.83;;;13.00;76.80;;;;;;5045327;28;20043;-61
2021/04/29 04:56:46;;;;;;;50.75;33.28;;;13.00;76.50;;;;;;5051268;28;20029;-61
2021/04/29 04:59:15;;;;;;;54.15;33.72;;;13.00;76.50;;;;;;5049402;28;20111;-62
2021/04/29 05:01:41;;;;;;;52.25;33.45;;;13.10;76.60;;;;;;5048804;28;20036;-62
2021/04/29 05:04:07;;;;;;;53.60;32.15;;;13.10;76.30;;;;;;5050565;28;20681;-62
2021/04/29 05:06:36;;;;;;;51.22;33.97;;;13.10;76.10;;;;;;5050795;28;20474;-62
2021/04/29 05:09:03;;;;;;;49.40;33.25;;;13.10;75.90;;;;;;5051353;28;20025;-61
2021/04/29 05:11:29;;;;;;;52.20;33.20;;;13.20;76.00;;;;;;5052157;28;20068;-62
2021/04/29 05:13:55;;;;;;;55.28;32.88;;;13.20;75.80;;;;;;5048990;28;20037;-61
2021/04/29 05:16:21;;;;;;;53.75;33.40;;;13.20;75.80;;;;;;5053319;28;20498;-62
2021/04/29 05:18:47;;;;;;;52.20;33.38;;;13.20;75.50;;;;;;5051175;28;20095;-61
2021/04/29 05:21:14;;;;;;;50.53;30.77;;;13.10;75.60;;;;;;5051393;28;20028;-61
2021/04/29 05:23:39;;;;;;;50.05;31.48;;;13.20;75.60;;;;;;5051621;28;20509;-61
2021/04/29 05:26:05;;;;;;;46.67;30.48;;;13.30;75.30;;;;;;5048335;28;20021;-62
2021/04/29 05:28:31;;;;;;;50.20;31.00;;;13.40;74.80;;;;;;5051865;28;20587;-61
2021/04/29 05:30:56;;;;;;;55.22;30.50;;;13.40;74.50;;;;;;5050097;28;20408;-62
2021/04/29 05:33:22;;;;;;;44.75;28.95;;;13.60;73.70;;;;;;5050152;28;20466;-61
2021/04/29 05:35:48;;;;;;;47.65;30.05;;;13.70;73.10;;;;;;5033864;28;20116;-61
2021/04/29 05:38:13;;;;;;;51.08;30.98;;;13.80;72.80;;;;;;5049791;28;20437;-64
2021/04/29 05:40:39;;;;;;;48.72;31.20;;;13.90;72.70;;;;;;5061839;28;20037;-61
2021/04/29 05:43:05;;;;;;;54.13;31.95;;;14.00;71.90;;;;;;5051083;28;20068;-62
2021/04/29 05:45:31;;;;;;;48.47;30.05;;;14.20;71.30;;;;;;5051342;28;20025;-62
2021/04/29 05:47:57;;;;;;;46.53;29.08;;;14.20;71.00;;;;;;5049995;28;20021;-63
2021/04/29 05:50:23;;;;;;;52.67;30.30;;;14.20;70.70;;;;;;5050927;28;20071;-62
2021/04/29 05:52:48;;;;;;;54.38;33.30;;;14.30;70.50;;;;;;5048272;28;20033;-64
2021/04/29 05:55:14;;;;;;;47.65;30.05;;;14.30;70.50;;;;;;5044830;28;20028;-61
2021/04/29 05:57:40;;;;;;;48.47;30.85;;;14.40;70.00;;;;;;5051750;28;20104;-62
2021/04/29 06:00:07;;;;;;;47.05;30.40;;;14.40;70.20;;;;;;5048297;28;20075;-61
2021/04/29 06:02:33;;;;;;;43.22;28.48;;;14.50;69.70;;;;;;5051281;28;20029;-61
2021/04/29 06:04:59;;;;;;;40.25;28.63;;;14.50;69.50;;;;;;5045214;28;20051;-61
2021/04/29 06:07:24;;;;;;;47.03;30.42;;;14.40;69.50;;;;;;5051548;28;20465;-62
2021/04/29 06:09:50;;;;;;;49.28;29.67;;;14.60;69.20;;;;;;5050826;28;20056;-62
2021/04/29 06:12:16;;;;;;;46.33;30.40;;;14.70;68.70;;;;;;5050172;28;20513;-62
2021/04/29 06:14:43;;;;;;;47.90;28.77;;;14.70;68.40;;;;;;5050328;28;20035;-62
2021/04/29 06:17:09;;;;;;;49.83;28.90;;;14.80;68.40;;;;;;5051233;28;20238;-62
2021/04/29 06:19:36;;;;;;;47.95;30.17;;;14.90;68.00;;;;;;5049808;28;20052;-62
2021/04/29 06:22:01;;;;;;;42.45;27.02;;;14.90;67.30;;;;;;5049397;28;20493;-62
2021/04/29 06:24:27;;;;;;;47.40;28.88;;;15.00;67.50;;;;;;5049833;28;20037;-63
2021/04/29 06:26:53;;;;;;;50.92;29.73;;;15.20;67.20;;;;;;5049668;28;20028;-62
2021/04/29 06:29:19;;;;;;;49.53;30.42;;;15.40;66.60;;;;;;5051132;28;20450;-62
2021/04/29 06:31:45;;;;;;;47.28;30.50;;;15.50;66.10;;;;;;5051460;28;20025;-62
2021/04/29 06:34:11;;;;;;;46.58;29.95;;;15.50;65.50;;;;;;5049441;28;20032;-62
2021/04/29 06:36:37;;;;;;;41.53;27.77;;;15.50;65.20;;;;;;5048944;28;20032;-64
2021/04/29 06:39:04;;;;;;;50.00;29.58;;;15.60;65.30;;;;;;5044771;28;20021;-63
2021/04/29 06:41:29;;;;;;;46.80;29.30;;;15.70;64.70;;;;;;5049921;28;20033;-63
2021/04/29 06:43:55;;;;;;;42.30;28.98;;;15.70;64.60;;;;;;5050038;28;20028;-63
2021/04/29 06:46:21;;;;;;;47.47;30.05;;;15.80;64.40;;;;;;5046664;28;20052;-63
2021/04/29 06:48:47;;;;;;;43.60;29.65;;;15.90;64.00;;;;;;5049182;28;20029;-62
2021/04/29 06:51:14;;;;;;;45.38;30.52;;;16.20;63.70;;;;;;5049862;28;20543;-62
2021/04/29 06:53:39;;;;;;;43.35;29.17;;;16.30;62.60;;;;;;5042108;28;20442;-62
2021/04/29 06:56:05;;;;;;;39.33;27.85;;;16.40;62.00;;;;;;5047592;28;20126;-63
2021/04/29 06:58:33;;;;;;;42.85;29.67;;;16.50;62.00;;;;;;5047081;28;20493;-63
2021/04/29 07:00:59;;;;;;;40.42;27.60;;;16.60;61.50;;;;;;5045649;28;20535;-63
2021/04/29 07:03:25;;;;;;;44.08;29.35;;;16.90;61.10;;;;;;5049506;28;20040;-63
2021/04/29 07:05:52;;;;;;;40.97;26.98;;;17.30;60.30;;;;;;5047053;28;20414;-62
2021/04/29 07:08:17;;;;;;;42.35;28.00;;;17.50;58.60;;;;;;5044982;28;20098;-63
2021/04/29 07:10:43;;;;;;;39.20;26.67;;;17.70;58.10;;;;;;5047714;28;20462;-62
2021/04/29 07:13:09;;;;;;;38.53;27.52;;;18.00;57.60;;;;;;5045741;28;20264;-62
2021/04/29 07:15:35;;;;;;;37.90;26.50;;;18.50;56.30;;;;;;5047000;28;20021;-63
2021/04/29 07:18:02;;;;;;;45.38;27.95;;;18.50;55.40;;;;;;5045523;28;20090;-63
2021/04/29 07:20:29;;;;;;;41.00;27.60;;;19.10;55.00;;;;;;5049131;28;20017;-63
2021/04/29 07:22:56;;;;;;;34.50;25.33;;;22.20;52.10;;;;;;5048041;28;20048;-66
2021/04/29 07:25:23;;;;;;;35.17;25.67;;;25.80;42.40;;;;;;5046292;28;20060;-63
2021/04/29 07:27:50;;;;;;;31.10;24.13;;;26.60;38.00;;;;;;5042077;28;20029;-63
2021/04/29 07:30:16;;;;;;;34.60;25.40;;;27.10;36.60;;;;;;5048704;28;20115;-64
2021/04/29 07:32:42;;;;;;;35.70;23.85;;;29.00;35.10;;;;;;5048779;28;20140;-64
2021/04/29 07:35:09;;;;;;;30.90;23.63;;;30.60;32.80;;;;;;5045169;28;20272;-63
2021/04/29 07:37:34;;;;;;;27.10;23.08;;;32.10;31.00;;;;;;5046985;28;20095;-63
2021/04/29 07:40:02;;;;;;;30.10;25.17;;;34.00;28.90;;;;;;5047040;28;20461;-64
2021/04/29 07:42:28;;;;;;;31.63;23.95;;;35.30;27.40;;;;;;5048910;28;20029;-66
2021/04/29 07:44:54;;;;;;;31.65;23.17;;;36.50;26.40;;;;;;5041286;28;20047;-64
2021/04/29 07:47:19;;;;;;;28.25;23.05;;;37.30;25.30;;;;;;5047771;28;20029;-63
2021/04/29 07:49:45;;;;;;;27.83;22.38;;;37.40;24.90;;;;;;5045255;28;20056;-63
2021/04/29 07:52:11;;;;;;;27.58;22.13;;;38.40;24.50;;;;;;5042577;28;20041;-65
2021/04/29 07:54:37;;;;;;;31.17;23.73;;;39.10;24.10;;;;;;5043632;28;20098;-64
2021/04/29 07:57:03;;;;;;;26.65;23.75;;;39.30;23.50;;;;;;5045765;28;20445;-64
2021/04/29 07:59:29;;;;;;;27.50;23.17;;;39.30;23.30;;;;;;5039355;28;20040;-65
2021/04/29 08:01:58;;;;;;;30.25;23.02;;;39.00;23.60;;;;;;5037340;28;20025;-64
2021/04/29 08:04:24;;;;;;;32.08;24.33;;;38.90;23.50;;;;;;5047386;28;20090;-64
2021/04/29 08:06:50;;;;;;;33.83;24.35;;;39.50;23.20;;;;;;5047922;28;20029;-64
2021/04/29 08:09:16;;;;;;;26.85;22.70;;;39.10;23.20;;;;;;5048321;28;20025;-64
2021/04/29 08:11:42;;;;;;;29.48;22.58;;;40.10;22.90;;;;;;5049189;28;20032;-65
2021/04/29 08:14:08;;;;;;;27.05;21.45;;;40.50;22.60;;;;;;5046980;28;20063;-63
2021/04/29 08:16:34;;;;;;;25.33;20.73;;;40.80;22.40;;;;;;5046032;28;20386;-64
2021/04/29 08:19:00;;;;;;;25.77;22.35;;;41.60;22.10;;;;;;5043815;28;20067;-64
2021/04/29 08:21:25;;;;;;;27.38;21.70;;;40.70;22.00;;;;;;5044951;28;20378;-64
2021/04/29 08:23:51;;;;;;;31.48;21.95;;;40.90;22.10;;;;;;5045490;28;20040;-64
2021/04/29 08:26:17;;;;;;;25.67;21.50;;;41.10;21.90;;;;;;5045895;28;20037;-64
2021/04/29 08:28:42;;;;;;;27.27;22.33;;;40.90;22.00;;;;;;5048407;28;21554;-65
2021/04/29 08:31:08;;;;;;;28.63;22.23;;;40.10;22.20;;;;;;5047517;28;20048;-64
2021/04/29 08:33:34;;;;;;;25.55;20.70;;;40.00;22.50;;;;;;5049879;28;20033;-65
2021/04/29 08:36:00;;;;;;;23.90;20.30;;;40.10;22.40;;;;;;5047914;28;20033;-64
2021/04/29 08:38:26;;;;;;;24.52;20.73;;;40.20;22.30;;;;;;5047868;28;20036;-64
2021/04/29 08:40:52;;;;;;;27.58;21.95;;;40.50;22.10;;;;;;5044889;28;20030;-63
2021/04/29 08:43:19;;;;;;;25.70;22.17;;;40.90;21.90;;;;;;5055486;28;20041;-65
2021/04/29 08:45:45;;;;;;;24.15;21.65;;;40.20;21.70;;;;;;5050017;28;20037;-65
2021/04/29 08:48:15;;;;;;;29.48;21.90;;;38.70;22.30;;;;;;5051373;28;20147;-65
2021/04/29 08:50:41;;;;;;;26.85;21.67;;;38.60;22.70;;;;;;5054068;28;20087;-64
2021/04/29 08:53:07;;;;;;;27.42;22.40;;;38.70;22.70;;;;;;5047112;28;20175;-66
2021/04/29 08:55:36;;;;;;;29.60;22.67;;;39.20;22.40;;;;;;5051192;28;20037;-66
2021/04/29 08:58:21;;;;;;;26.70;21.52;;;38.80;22.40;;;;;;5046528;28;20021;-65
2021/04/29 09:00:58;;;;;;;26.60;22.88;;;37.90;23.10;;;;;;5038050;28;20025;-65
2021/04/29 09:03:29;;;;;;;30.92;20.83;;;37.70;23.10;;;;;;5041814;28;20095;-65
2021/04/29 09:06:03;;;;;;;29.20;22.17;;;37.40;23.30;;;;;;5052967;28;20470;-63
2021/04/29 09:08:31;;;;;;;26.98;21.95;;;35.10;24.00;;;;;;5035094;28;20025;-65
2021/04/29 09:11:17;;;;;;;40.22;25.02;;;32.30;26.40;;;;;;5044589;28;20040;-64
2021/04/29 09:14:07;;;;;;;37.50;24.35;;;29.80;28.00;;;;;;5035802;28;20076;-64
2021/04/29 09:16:46;;;;;;;31.23;23.63;;;27.50;30.60;;;;;;5038707;28;20025;-65
2021/04/29 09:19:22;;;;;;;32.60;23.30;;;26.40;32.40;;;;;;5042960;28;20037;-65
2021/04/29 09:21:48;;;;;;;31.35;24.08;;;25.80;33.70;;;;;;5034677;28;20534;-67
2021/04/29 09:24:14;;;;;;;36.17;23.67;;;25.30;34.50;;;;;;5033848;28;20117;-67
2021/04/29 09:26:41;;;;;;;34.83;23.63;;;24.80;35.50;;;;;;5050931;28;20370;-66
2021/04/29 09:29:14;;;;;;;30.63;24.25;;;24.40;36.20;;;;;;5051719;28;20095;-67
2021/04/29 09:31:42;;;;;;;34.65;23.77;;;24.10;36.60;;;;;;5043337;28;20469;-70
2021/04/29 09:34:08;;;;;;;40.78;25.42;;;24.00;36.80;;;;;;5052840;28;20033;-67
2021/04/29 09:36:41;;;;;;;31.80;22.52;;;24.10;36.90;;;;;;5052850;28;20497;-68
2021/04/29 09:39:18;;;;;;;53.15;25.58;;;24.10;37.00;;;;;;5051466;28;20025;-67
2021/04/29 09:41:46;;;;;;;34.63;24.20;;;24.00;37.30;;;;;;5054568;28;20056;-64
2021/04/29 09:44:17;;;;;;;39.20;23.70;;;24.20;37.20;;;;;;5031456;28;20074;-70
2021/04/29 09:46:53;;;;;;;34.20;21.92;;;24.40;36.70;;;;;;5051997;28;20017;-69
2021/04/29 09:49:22;;;;;;;32.33;21.23;;;24.80;36.30;;;;;;5052471;28;20469;-68
2021/04/29 09:51:48;;;;;;;33.35;22.17;;;24.90;35.70;;;;;;5052845;28;20029;-69
2021/04/29 09:54:35;;;;;;;38.65;21.52;;;24.80;35.70;;;;;;5051996;28;20329;-65
2021/04/29 09:57:07;;;;;;;29.95;21.75;;;24.80;36.00;;;;;;5050279;28;20021;-68
2021/04/29 09:59:39;;;;;;;43.23;21.93;;;24.80;36.10;;;;;;5046215;28;20024;-68
2021/04/29 10:02:05;;;;;;;28.38;22.15;;;24.80;36.20;;;;;;5033649;28;20022;-67
2021/04/29 10:04:31;;;;;;;29.52;20.42;;;24.80;36.20;;;;;;5035996;28;20025;-65
2021/04/29 10:07:00;;;;;;;38.42;21.27;;;24.80;36.20;;;;;;5035757;28;20360;-67
2021/04/29 10:09:31;;;;;;;34.65;22.75;;;24.80;36.30;;;;;;5047063;28;20026;-67
2021/04/29 10:12:02;;;;;;;32.50;23.00;;;24.70;36.40;;;;;;5038120;28;20041;-66
2021/04/29 10:14:33;;;;;;;36.03;22.83;;;24.40;36.90;;;;;;5051736;28;20033;-68
2021/04/29 10:17:03;;;;;;;31.40;21.42;;;24.30;37.30;;;;;;5035393;28;20039;-64
2021/04/29 10:19:30;;;;;;;33.40;21.15;;;24.30;37.40;;;;;;5043204;28;20328;-66
2021/04/29 10:21:59;;;;;;;30.83;21.90;;;24.10;37.50;;;;;;5052792;28;20393;-67
2021/04/29 10:24:25;;;;;;;35.88;22.88;;;24.10;37.80;;;;;;5045685;28;20120;-66
2021/04/29 10:27:03;;;;;;;34.30;22.33;;;24.20;38.40;;;;;;5033734;28;20113;-65
2021/04/29 10:29:29;;;;;;;36.33;20.38;;;23.80;38.20;;;;;;5034296;28;20029;-67
2021/04/29 10:31:57;;;;;;;27.13;19.83;;;23.90;38.30;;;;;;5032315;28;20104;-66
2021/04/29 10:34:24;;;;;;;33.63;21.65;;;24.00;38.00;;;;;;5033446;28;20500;-67
2021/04/29 10:36:51;;;;;;;27.77;20.40;;;24.00;38.10;;;;;;5050607;28;20112;-67
2021/04/29 10:39:18;;;;;;;38.13;20.45;;;24.10;38.00;;;;;;5051400;28;20438;-67
2021/04/29 10:41:45;;;;;;;30.10;20.83;;;24.20;38.40;;;;;;5044750;28;20068;-66
2021/04/29 10:44:14;;;;;;;51.42;22.23;;;23.90;38.20;;;;;;5037122;28;20108;-66
2021/04/29 10:46:41;;;;;;;36.65;21.25;;;23.80;38.60;;;;;;5041541;28;20578;-67
2021/04/29 10:49:09;;;;;;;35.55;20.92;;;23.60;39.10;;;;;;5050001;28;20029;-66
2021/04/29 10:51:37;;;;;;;33.45;21.30;;;23.40;39.50;;;;;;5043084;28;20067;-67
2021/04/29 10:54:19;;;;;;;28.08;19.30;;;23.50;39.50;;;;;;5039729;28;20029;-66
2021/04/29 10:56:59;;;;;;;25.40;20.20;;;23.50;39.50;;;;;;5033334;28;20483;-66
2021/04/29 10:59:47;;;;;;;30.55;20.00;;;23.50;39.70;;;;;;5030148;28;20040;-65
2021/04/29 11:02:35;;;;;;;36.70;20.95;;;23.60;39.50;;;;;;5022729;28;20116;-67
2021/04/29 11:05:05;;;;;;;28.67;18.45;;;23.40;39.80;;;;;;5029673;28;20174;-68
2021/04/29 11:07:31;;;;;;;27.70;17.88;;;23.40;40.00;;;;;;5035562;28;20112;-65
2021/04/29 11:10:08;;;;;;;28.95;17.10;;;23.60;39.60;;;;;;5031004;28;20072;-65
2021/04/29 11:12:47;;;;;;;27.38;16.95;;;23.80;39.00;;;;;;5019469;28;20502;-65
2021/04/29 11:15:32;;;;;;;26.40;18.42;;;24.10;38.20;;;;;;5019918;28;20033;-66
2021/04/29 11:18:12;;;;;;;37.53;21.95;;;24.00;38.30;;;;;;5032445;28;20075;-65
2021/04/29 11:20:54;;;;;;;31.90;19.95;;;24.00;39.00;;;;;;5029631;28;20136;-67
2021/04/29 11:23:27;;;;;;;31.38;19.00;;;24.00;39.20;;;;;;5016679;28;20267;-66
2021/04/29 11:26:15;;;;;;;30.07;19.27;;;23.80;39.40;;;;;;5024849;28;20025;-67
2021/04/29 11:28:41;;;;;;;29.90;18.80;;;24.00;39.20;;;;;;5020478;28;20276;-65
2021/04/29 11:31:08;;;;;;;24.75;18.65;;;24.20;38.50;;;;;;5024138;28;20040;-66
2021/04/29 11:33:36;;;;;;;28.08;18.35;;;24.50;38.20;;;;;;5021264;28;20288;-68
2021/04/29 11:36:23;;;;;;;29.88;17.92;;;24.30;38.20;;;;;;5016456;28;20148;-66
2021/04/29 11:39:01;;;;;;;25.02;16.92;;;24.30;38.10;;;;;;5019120;28;20036;-65
2021/04/29 11:41:29;;;;;;;23.70;17.98;;;24.40;38.00;;;;;;5017272;28;20025;-66
2021/04/29 11:44:05;;;;;;;23.70;16.70;;;24.50;37.60;;;;;;5030258;28;20033;-65
2021/04/29 11:46:34;;;;;;;22.23;15.60;;;24.40;37.30;;;;;;5030548;28;20112;-64
2021/04/29 11:49:03;;;;;;;25.88;15.55;;;24.40;37.50;;;;;;5033445;28;20040;-67
2021/04/29 11:51:30;;;;;;;24.80;16.98;;;24.20;37.60;;;;;;5038192;28;20514;-64
2021/04/29 11:54:07;;;;;;;19.33;13.73;;;23.90;38.10;;;;;;5038577;28;20135;-64
2021/04/29 11:56:47;;;;;;;23.88;14.45;;;24.00;38.20;;;;;;5023069;28;20095;-68
2021/04/29 11:59:15;;;;;;;25.55;13.88;;;24.30;37.70;;;;;;5026375;28;20485;-65
2021/04/29 12:01:41;;;;;;;29.33;14.15;;;24.40;37.30;;;;;;5022425;28;20040;-66
2021/04/29 12:04:15;;;;;;;29.63;14.82;;;24.60;37.00;;;;;;5018904;28;20485;-66
2021/04/29 12:06:52;;;;;;;18.92;13.27;;;24.60;36.70;;;;;;5020248;28;20431;-63
2021/04/29 12:09:19;;;;;;;21.42;12.68;;;24.70;36.50;;;;;;5025149;28;20033;-65
2021/04/29 12:11:45;;;;;;;16.95;11.73;;;24.90;36.30;;;;;;5037903;28;20478;-64
2021/04/29 12:14:29;;;;;;;18.90;12.18;;;25.00;36.00;;;;;;5035722;28;20158;-65
2021/04/29 12:17:02;;;;;;;;;;;24.90;35.70;;;;;;5037630;28;20124;-64
2021/04/29 12:19:29;;;;;;;19.10;11.82;;;24.70;35.80;;;;;;5032245;28;19913;-65
2021/04/29 12:21:56;;;;;;;18.23;11.57;;;24.60;35.80;;;;;;5019788;28;20466;-65
2021/04/29 12:24:21;;;;;;;18.17;10.98;;;24.60;35.90;;;;;;5027476;28;20049;-65
2021/04/29 12:26:49;;;;;;;21.90;11.52;;;24.80;35.70;;;;;;5018712;28;20029;-68
2021/04/29 12:29:19;;;;;;;25.40;12.85;;;24.80;36.00;;;;;;5027448;28;20276;-63
2021/04/29 12:32:00;;;;;;;16.85;12.05;;;25.00;35.80;;;;;;5017587;28;20041;-64
2021/04/29 12:34:27;;;;;;;18.63;11.82;;;25.00;35.50;;;;;;5023898;28;20045;-65